• Join FlightAware (Why Join?)
  • Login
  • US Flag 
04:04AM EDT


 

Airport Tracker/Info


-or-


 

Live Flight TrackerFlight Track Log ✈ LAN931 ✈ 22-Jun-2013 ✈ SAME / MDZ - SCEL / SCL

Flight Track Log - Related Links

Times and Time Zones

All times are in EDT time to prevent confusion due to time zone crossing. See the LAN931 flight status page for this flight to view local times or setup timezone preferences in your user account.

Time Position Orientation Groundspeed Altitude Reporting Facility
EDT Latitude Longitude Course Direction KTS MPH feet Rate Location/Type
11:04AM -32.8390 -68.7930 181° South 155 178 2,500  Level FlightAware
11:05AM -32.8590 -68.7840 159° South 172 198 3,700 2,100 Climbing FlightAware
11:05AM -32.8630 -68.7690 108° East 202 232 4,100 1,860 Climbing FlightAware
11:05AM -32.8670 -68.7390 99° East 233 268 5,000 2,400 Climbing FlightAware
11:06AM -32.8740 -68.7260 123° Southeast 253 291 5,500 3,180 Climbing FlightAware
11:06AM -32.8960 -68.6910 127° Southeast 283 326 7,100 3,600 Climbing FlightAware
11:06AM -32.9180 -68.6550 126° Southeast 288 331 9,000 3,480 Climbing FlightAware
11:07AM -32.9540 -68.5950 126° Southeast 311 358 11,400 3,240 Climbing FlightAware
11:08AM -32.9880 -68.5380 125° Southeast 329 379 13,600 2,880 Climbing FlightAware
11:09AM -33.0310 -68.4660 125° Southeast 356 410 15,700 1,980 Climbing FlightAware
11:09AM -33.0630 -68.4020 121° Southeast 354 407 16,500 3,000 Climbing FlightAware
11:10AM -33.0350 -68.3700 44° Northeast 353 406 18,200 4,560 Climbing FlightAware
11:10AM -32.9960 -68.3350 37° Northeast 337 388 19,700 1,680 Climbing FlightAware
11:11AM -32.9140 -68.3030 18° North 345 397 20,800 660 Climbing FlightAware
11:12AM -32.8670 -68.2860 17° North 345 397 20,800 2,340 Level FlightAware
11:12AM -32.8340 -68.3220 317° Northwest 345 397 22,700 3,180 Climbing FlightAware
11:13AM -32.8110 -68.3870 293° West 355 409 23,800 1,800 Climbing FlightAware
11:13AM -32.8160 -68.4890 267° West 363 418 25,500 2,400 Climbing FlightAware
11:14AM -32.8220 -68.5760 265° West 360 414 27,400 1,920 Climbing FlightAware
11:15AM -32.8250 -68.6440 267° West 349 402 28,000 420 Climbing FlightAware
11:15AM -32.8290 -68.7370 267° West 343 395 28,000  Level FlightAware
11:16AM -32.8340 -68.8340 266° West 345 397 28,000  Level FlightAware
11:17AM -32.8380 -68.9150 267° West 346 398 28,000  Level FlightAware
11:18AM -32.8410 -68.9930 267° West 346 398 28,000  Level FlightAware
11:18AM -32.8450 -69.0790 267° West 345 397 28,000  Level FlightAware
11:19AM -32.8500 -69.1810 267° West 345 397 28,000  Level FlightAware
11:20AM -32.8530 -69.2650 268° West 347 399 28,000  Level FlightAware
11:21AM -32.8560 -69.3340 267° West 347 399 28,000  Level FlightAware
11:22AM -32.8610 -69.4410 267° West 344 396 28,000  Level FlightAware
11:23AM -32.8650 -69.5460 267° West 341 392 28,000  Level FlightAware
11:23AM -32.8690 -69.6260 267° West 339 390 28,000  Level FlightAware
11:24AM -32.8720 -69.7170 268° West 339 390 28,000  Level FlightAware
11:25AM -32.8760 -69.7900 266° West 339 390 28,000  Level FlightAware
11:26AM -32.8780 -69.8470 268° West 339 390 28,000  Level FlightAware
11:26AM -32.8810 -69.9200 267° West 339 390 28,000  Level FlightAware
11:27AM -32.8790 -70.0510 271° West 337 388 28,000  Level FlightAware
11:28AM -32.8720 -70.1220 277° West 338 389 28,000 -600 Level FlightAware
11:29AM -32.8640 -70.2100 276° West 339 390 27,200 -2,700 Descending FlightAware
11:30AM -32.8550 -70.3060 276° West 364 419 23,900 -3,360 Descending FlightAware
11:30AM -32.8460 -70.4070 276° West 358 412 21,600 -2,700 Descending FlightAware
11:31AM -32.8400 -70.4650 277° West 332 382 20,000 -2,280 Descending FlightAware
11:32AM -32.8320 -70.5560 276° West 341 392 18,300 -1,320 Descending FlightAware
11:32AM -32.8270 -70.6140 276° West 341 392 18,300  Level FlightAware
11:33AM -32.8200 -70.6900 276° West 341 392 18,300  Level FlightAware
11:34AM -32.8150 -70.7480 276° West 341 392 18,300  Level FlightAware
11:35AM -32.8090 -70.8230 275° West 341 392 18,300 -3,120 Level FlightAware
11:37AM -32.8843 -70.8182 177° South  Level Estimated
11:38AM -32.9226 -70.8158 177° South  Level Estimated
11:38AM -33.1470 -70.8160 177° South 281 323 5,100  Level FlightAware
11:38AM -33.1770 -70.8140 177° South 269 310 4,900 -660 Descending FlightAware
11:39AM -33.2140 -70.8120 177° South 236 272 4,500 -1,080 Descending FlightAware
11:39AM -33.2460 -70.8110 179° South 231 266 3,800 -840 Descending FlightAware
11:40AM -33.2720 -70.8090 176° South 230 265 3,700 -1,080 Descending FlightAware
11:40AM -33.2990 -70.8080 178° South 210 242 2,800 -720 Descending FlightAware
11:41AM -33.3250 -70.8060 176° South 160 184 2,700 -120 Descending FlightAware
11:43AM -33.3920 -70.8030 244° Southwest 141 162 -1,380 Descending FlightAware
11:44AM -33.3833 -70.7667 244° Southwest  Level FlightAware Approximate
11:44AM -33.3850 -70.7860 64° Northeast 141 162  Level FlightAware
11:47AM -33.3930 -70.7858 244° Southwest  Level Estimated